sensor_id;sensor_type;location;lat;lon;timestamp;pressure;altitude;pressure_sealevel;temperature;humidity
23659;BME280;12006;42.666;23.326;2023-02-18T00:02:06;-11279.16;;;3.46;100.00
23659;BME280;12006;42.666;23.326;2023-02-18T00:04:32;-11280.19;;;3.54;100.00
23659;BME280;12006;42.666;23.326;2023-02-18T00:06:58;-10963.75;;;3.49;100.00
23659;BME280;12006;42.666;23.326;2023-02-18T00:09:24;-11277.63;;;3.35;100.00
23659;BME280;12006;42.666;23.326;2023-02-18T00:11:50;-10962.75;;;3.42;100.00
23659;BME280;12006;42.666;23.326;2023-02-18T00:14:16;-10959.75;;;3.19;100.00
23659;BME280;12006;42.666;23.326;2023-02-18T00:16:42;-11904.47;;;3.04;100.00
23659;BME280;12006;42.666;23.326;2023-02-18T00:19:11;-12853.94;;;3.23;100.00
23659;BME280;12006;42.666;23.326;2023-02-18T00:21:37;-11906.75;;;3.20;100.00
23659;BME280;12006;42.666;23.326;2023-02-18T00:24:04;-11905.66;;;3.12;100.00
23659;BME280;12006;42.666;23.326;2023-02-18T00:26:30;-12533.41;;;2.92;100.00
23659;BME280;12006;42.666;23.326;2023-02-18T00:28:56;-13480.38;;;2.97;100.00
23659;BME280;12006;42.666;23.326;2023-02-18T00:31:27;-13164.50;;;2.94;100.00
23659;BME280;12006;42.666;23.326;2023-02-18T00:33:54;-13166.94;;;3.08;100.00
23659;BME280;12006;42.666;23.326;2023-02-18T00:36:20;-12534.28;;;2.97;100.00
23659;BME280;12006;42.666;23.326;2023-02-18T00:38:48;-13161.63;;;2.77;100.00
23659;BME280;12006;42.666;23.326;2023-02-18T00:41:15;-13478.72;;;2.87;100.00
23659;BME280;12006;42.666;23.326;2023-02-18T00:43:40;-13793.91;;;2.87;100.00
23659;BME280;12006;42.666;23.326;2023-02-18T00:46:06;-14107.34;;;2.77;100.00
23659;BME280;12006;42.666;23.326;2023-02-18T00:48:32;-14737.38;;;2.75;100.00
23659;BME280;12006;42.666;23.326;2023-02-18T00:50:59;-14738.56;;;2.81;100.00
23659;BME280;12006;42.666;23.326;2023-02-18T00:53:26;-15053.72;;;2.81;100.00
23659;BME280;12006;42.666;23.326;2023-02-18T00:55:51;-15368.44;;;2.79;100.00
23659;BME280;12006;42.666;23.326;2023-02-18T00:58:17;-15051.41;;;2.70;100.00
23659;BME280;12006;42.666;23.326;2023-02-18T01:00:42;-15682.47;;;2.74;100.00
23659;BME280;12006;42.666;23.326;2023-02-18T01:03:08;-15368.63;;;2.80;100.00
23659;BME280;12006;42.666;23.326;2023-02-18T01:05:34;-15367.00;;;2.72;100.00
23659;BME280;12006;42.666;23.326;2023-02-18T01:08:01;-15993.53;;;2.56;100.00
23659;BME280;12006;42.666;23.326;2023-02-18T01:10:26;-15682.28;;;2.73;100.00
23659;BME280;12006;42.666;23.326;2023-02-18T01:12:52;-15995.56;;;2.65;100.00
23659;BME280;12006;42.666;23.326;2023-02-18T01:15:20;-16626.63;;;2.70;100.00
23659;BME280;12006;42.666;23.326;2023-02-18T01:17:45;-16310.09;;;2.63;100.00
23659;BME280;12006;42.666;23.326;2023-02-18T01:20:12;-16313.31;;;2.78;100.00
23659;BME280;12006;42.666;23.326;2023-02-18T01:22:38;-15683.53;;;2.79;100.00
23659;BME280;12006;42.666;23.326;2023-02-18T01:25:05;-15680.28;;;2.64;100.00
23659;BME280;12006;42.666;23.326;2023-02-18T01:27:31;-15994.94;;;2.62;100.00
23659;BME280;12006;42.666;23.326;2023-02-18T01:29:56;-15362.47;;;2.50;100.00
23659;BME280;12006;42.666;23.326;2023-02-18T01:32:22;-15679.53;;;2.60;100.00
23659;BME280;12006;42.666;23.326;2023-02-18T01:34:47;-15993.22;;;2.54;100.00
23659;BME280;12006;42.666;23.326;2023-02-18T01:37:13;-15993.63;;;2.56;100.00
23659;BME280;12006;42.666;23.326;2023-02-18T01:39:38;-16305.13;;;2.41;100.00
23659;BME280;12006;42.666;23.326;2023-02-18T01:42:04;-16934.75;;;2.41;100.00
23659;BME280;12006;42.666;23.326;2023-02-18T01:44:32;-16619.38;;;2.38;100.00
23659;BME280;12006;42.666;23.326;2023-02-18T01:46:58;-16619.63;;;2.39;100.00
23659;BME280;12006;42.666;23.326;2023-02-18T01:49:35;-17244.78;;;2.21;100.00
23659;BME280;12006;42.666;23.326;2023-02-18T01:52:05;-17560.88;;;2.27;100.00
23659;BME280;12006;42.666;23.326;2023-02-18T01:54:39;-18192.03;;;2.35;100.00
23659;BME280;12006;42.666;23.326;2023-02-18T01:57:06;-17560.41;;;2.25;100.00
23659;BME280;12006;42.666;23.326;2023-02-18T01:59:38;-17875.16;;;2.26;100.00
23659;BME280;12006;42.666;23.326;2023-02-18T02:02:08;-17876.63;;;2.32;100.00
23659;BME280;12006;42.666;23.326;2023-02-18T02:04:35;-17555.69;;;2.06;100.00
23659;BME280;12006;42.666;23.326;2023-02-18T02:07:01;-18190.25;;;2.28;100.00
23659;BME280;12006;42.666;23.326;2023-02-18T02:09:28;-18188.00;;;2.19;100.00
23659;BME280;12006;42.666;23.326;2023-02-18T02:17:07;-18504.97;;;2.28;100.00
23659;BME280;12006;42.666;23.326;2023-02-18T02:22:39;-18192.91;;;2.38;100.00
23659;BME280;12006;42.666;23.326;2023-02-18T02:25:25;-18190.50;;;2.29;100.00
23659;BME280;12006;42.666;23.326;2023-02-18T02:31:07;-18819.41;;;2.28;100.00
23659;BME280;12006;42.666;23.326;2023-02-18T02:36:22;-19447.53;;;2.24;100.00
23659;BME280;12006;42.666;23.326;2023-02-18T02:40:10;-19446.28;;;2.20;100.00
23659;BME280;12006;42.666;23.326;2023-02-18T02:42:18;-19134.50;;;2.30;100.00
23659;BME280;12006;42.666;23.326;2023-02-18T02:44:59;-19762.56;;;2.26;100.00
23659;BME280;12006;42.666;23.326;2023-02-18T02:47:36;-19765.47;;;2.37;100.00
23659;BME280;12006;42.666;23.326;2023-02-18T02:50:09;-19137.03;;;2.39;100.00
23659;BME280;12006;42.666;23.326;2023-02-18T02:52:47;-18819.28;;;2.27;100.00
23659;BME280;12006;42.666;23.326;2023-02-18T02:55:15;-19446.28;;;2.20;100.00
23659;BME280;12006;42.666;23.326;2023-02-18T03:00:12;-19757.00;;;2.06;100.00
23659;BME280;12006;42.666;23.326;2023-02-18T03:11:17;-19446.84;;;2.22;100.00
23659;BME280;12006;42.666;23.326;2023-02-18T03:16:27;-20074.88;;;2.19;100.00
23659;BME280;12006;42.666;23.326;2023-02-18T03:21:58;-20074.03;;;2.16;100.00
23659;BME280;12006;42.666;23.326;2023-02-18T03:24:28;-20391.00;;;2.25;100.00
23659;BME280;12006;42.666;23.326;2023-02-18T03:27:23;-19765.75;;;2.38;100.00
23659;BME280;12006;42.666;23.326;2023-02-18T03:29:50;-19134.09;;;2.28;100.00
23659;BME280;12006;42.666;23.326;2023-02-18T03:32:20;-19444.25;;;2.12;100.00
23659;BME280;12006;42.666;23.326;2023-02-18T03:34:52;-19757.69;;;2.09;100.00
23659;BME280;12006;42.666;23.326;2023-02-18T03:37:20;-20386.41;;;2.09;100.00
23659;BME280;12006;42.666;23.326;2023-02-18T03:39:50;-20384.53;;;2.02;100.00
23659;BME280;12006;42.666;23.326;2023-02-18T03:42:17;-20702.16;;;2.14;100.00
23659;BME280;12006;42.666;23.326;2023-02-18T03:44:43;-20703.34;;;2.18;100.00
23659;BME280;12006;42.666;23.326;2023-02-18T03:47:09;-20073.88;;;2.15;100.00
23659;BME280;12006;42.666;23.326;2023-02-18T03:49:34;-20700.72;;;2.09;100.00
23659;BME280;12006;42.666;23.326;2023-02-18T03:52:00;-21017.09;;;2.16;100.00
23659;BME280;12006;42.666;23.326;2023-02-18T03:54:25;-20394.16;;;2.36;100.00
23659;BME280;12006;42.666;23.326;2023-02-18T03:56:50;-20072.91;;;2.12;100.00
23659;BME280;12006;42.666;23.326;2023-02-18T03:59:16;-20704.06;;;2.20;100.00
23659;BME280;12006;42.666;23.326;2023-02-18T04:01:41;-20704.81;;;2.23;100.00
23659;BME280;12006;42.666;23.326;2023-02-18T04:04:07;-20391.88;;;2.28;100.00
23659;BME280;12006;42.666;23.326;2023-02-18T04:06:32;-19765.47;;;2.37;100.00
23659;BME280;12006;42.666;23.326;2023-02-18T04:08:58;-19445.47;;;2.17;100.00
23659;BME280;12006;42.666;23.326;2023-02-18T04:11:23;-20073.19;;;2.13;100.00
23659;BME280;12006;42.666;23.326;2023-02-18T04:13:48;-20074.03;;;2.16;100.00
23659;BME280;12006;42.666;23.326;2023-02-18T04:16:14;-20077.28;;;2.27;100.00
23659;BME280;12006;42.666;23.326;2023-02-18T04:18:39;-19756.03;;;2.03;100.00
23659;BME280;12006;42.666;23.326;2023-02-18T04:21:05;-21015.88;;;2.12;100.00
23659;BME280;12006;42.666;23.326;2023-02-18T04:23:30;-20388.97;;;2.18;100.00
23659;BME280;12006;42.666;23.326;2023-02-18T04:25:56;-20064.56;;;1.82;100.00
23659;BME280;12006;42.666;23.326;2023-02-18T04:28:21;-20697.94;;;1.99;100.00
23659;BME280;12006;42.666;23.326;2023-02-18T04:30:47;-20384.66;;;2.03;100.00
23659;BME280;12006;42.666;23.326;2023-02-18T04:33:13;-20691.91;;;1.79;100.00
23659;BME280;12006;42.666;23.326;2023-02-18T04:35:38;-21012.59;;;2.01;100.00
23659;BME280;12006;42.666;23.326;2023-02-18T04:38:06;-21014.84;;;2.08;100.00
23659;BME280;12006;42.666;23.326;2023-02-18T04:40:32;-20700.72;;;2.09;100.00
23659;BME280;12006;42.666;23.326;2023-02-18T04:42:58;-21017.53;;;2.17;100.00
23659;BME280;12006;42.666;23.326;2023-02-18T04:45:24;-21018.56;;;2.21;100.00
23659;BME280;12006;42.666;23.326;2023-02-18T04:47:50;-20705.09;;;2.24;100.00
23659;BME280;12006;42.666;23.326;2023-02-18T04:50:15;-20081.94;;;2.43;100.00
23659;BME280;12006;42.666;23.326;2023-02-18T04:52:41;-19451.19;;;2.38;100.00
23659;BME280;12006;42.666;23.326;2023-02-18T04:55:07;-19765.31;;;2.36;100.00
23659;BME280;12006;42.666;23.326;2023-02-18T04:57:32;-20082.81;;;2.46;100.00
23659;BME280;12006;42.666;23.326;2023-02-18T04:59:58;-19139.56;;;2.48;100.00
23659;BME280;12006;42.666;23.326;2023-02-18T05:02:23;-19452.56;;;2.42;100.00
23659;BME280;12006;42.666;23.326;2023-02-18T05:04:49;-19138.25;;;2.43;100.00
23659;BME280;12006;42.666;23.326;2023-02-18T05:07:14;-19764.34;;;2.33;100.00
23659;BME280;12006;42.666;23.326;2023-02-18T05:09:40;-19766.72;;;2.41;100.00
23659;BME280;12006;42.666;23.326;2023-02-18T05:12:05;-20084.78;;;2.53;100.00
23659;BME280;12006;42.666;23.326;2023-02-18T05:14:31;-20083.94;;;2.50;100.00
23659;BME280;12006;42.666;23.326;2023-02-18T05:16:56;-20401.94;;;2.62;100.00
23659;BME280;12006;42.666;23.326;2023-02-18T05:19:22;-19776.16;;;2.75;100.00
23659;BME280;12006;42.666;23.326;2023-02-18T05:21:47;-19466.19;;;2.92;100.00
23659;BME280;12006;42.666;23.326;2023-02-18T05:24:13;-18524.50;;;3.03;100.00
23659;BME280;12006;42.666;23.326;2023-02-18T05:26:38;-18207.25;;;2.95;100.00
23659;BME280;12006;42.666;23.326;2023-02-18T05:29:03;-18522.59;;;2.96;100.00
23659;BME280;12006;42.666;23.326;2023-02-18T05:31:29;-18525.28;;;3.06;100.00
23659;BME280;12006;42.666;23.326;2023-02-18T05:33:54;-18211.28;;;3.10;100.00
23659;BME280;12006;42.666;23.326;2023-02-18T05:36:20;-18211.91;;;3.13;100.00
23659;BME280;12006;42.666;23.326;2023-02-18T05:38:45;-18526.44;;;3.11;100.00
23659;BME280;12006;42.666;23.326;2023-02-18T05:41:11;-18522.34;;;2.95;100.00
23659;BME280;12006;42.666;23.326;2023-02-18T05:43:36;-19151.34;;;2.92;100.00
23659;BME280;12006;42.666;23.326;2023-02-18T05:46:21;-19467.97;;;2.98;100.00
23659;BME280;12006;42.666;23.326;2023-02-18T05:48:47;-18525.28;;;3.06;100.00
23659;BME280;12006;42.666;23.326;2023-02-18T05:51:13;-18838.28;;;2.99;100.00
23659;BME280;12006;42.666;23.326;2023-02-18T05:53:38;-19468.09;;;2.99;100.00
23659;BME280;12006;42.666;23.326;2023-02-18T05:56:04;-19471.63;;;3.12;100.00
23659;BME280;12006;42.666;23.326;2023-02-18T05:58:29;-19163.34;;;3.37;100.00
23659;BME280;12006;42.666;23.326;2023-02-18T06:00:55;-18851.66;;;3.50;100.00
23659;BME280;12006;42.666;23.326;2023-02-18T06:03:20;-18225.88;;;3.68;100.00
23659;BME280;12006;42.666;23.326;2023-02-18T06:05:48;-17905.97;;;3.50;100.00
23659;BME280;12006;42.666;23.326;2023-02-18T06:08:14;-18540.31;;;3.64;100.00
23659;BME280;12006;42.666;23.326;2023-02-18T06:10:39;-18227.16;;;3.73;100.00
23659;BME280;12006;42.666;23.326;2023-02-18T06:13:05;-17915.22;;;3.87;100.00
23659;BME280;12006;42.666;23.326;2023-02-18T06:15:30;-16655.75;;;3.98;100.00
23659;BME280;12006;42.666;23.326;2023-02-18T06:17:55;-16659.16;;;4.13;100.00
23659;BME280;12006;42.666;23.326;2023-02-18T06:20:21;-16344.66;;;4.19;100.00
23659;BME280;12006;42.666;23.326;2023-02-18T06:22:46;-16662.09;;;4.26;100.00
23659;BME280;12006;42.666;23.326;2023-02-18T06:25:12;-16666.25;;;4.44;100.00
23659;BME280;12006;42.666;23.326;2023-02-18T06:27:37;-16351.16;;;4.48;100.00
23659;BME280;12006;42.666;23.326;2023-02-18T06:30:03;-16667.84;;;4.51;100.00
23659;BME280;12006;42.666;23.326;2023-02-18T06:32:29;-16352.03;;;4.52;100.00
23659;BME280;12006;42.666;23.326;2023-02-18T06:34:54;-16037.91;;;4.60;100.00
23659;BME280;12006;42.666;23.326;2023-02-18T06:37:19;-15725.59;;;4.78;100.00
23659;BME280;12006;42.666;23.326;2023-02-18T06:39:45;-15094.78;;;4.85;100.00
23659;BME280;12006;42.666;23.326;2023-02-18T06:42:10;-15728.72;;;4.92;100.00
23659;BME280;12006;42.666;23.326;2023-02-18T06:44:36;-15417.66;;;5.17;100.00
23659;BME280;12006;42.666;23.326;2023-02-18T06:47:01;-15736.28;;;5.28;100.00
23659;BME280;12006;42.666;23.326;2023-02-18T06:49:27;-16053.94;;;5.34;100.00
23659;BME280;12006;42.666;23.326;2023-02-18T06:51:52;-15740.81;;;5.49;100.00
23659;BME280;12006;42.666;23.326;2023-02-18T06:54:17;-15741.84;;;5.54;100.00
23659;BME280;12006;42.666;23.326;2023-02-18T06:56:43;-15744.69;;;5.68;100.00
23659;BME280;12006;42.666;23.326;2023-02-18T06:59:08;-15746.78;;;5.78;100.00
23659;BME280;12006;42.666;23.326;2023-02-18T07:01:34;-15749.50;;;5.91;100.00
23659;BME280;12006;42.666;23.326;2023-02-18T07:03:59;-15431.38;;;5.84;100.00
23659;BME280;12006;42.666;23.326;2023-02-18T07:06:24;-15435.75;;;6.05;100.00
23659;BME280;12006;42.666;23.326;2023-02-18T07:08:50;-15118.03;;;6.01;100.00
23659;BME280;12006;42.666;23.326;2023-02-18T07:11:15;-15118.25;;;6.02;100.00
23659;BME280;12006;42.666;23.326;2023-02-18T07:13:41;-15439.13;;;6.21;100.00
23659;BME280;12006;42.666;23.326;2023-02-18T07:16:06;-15122.81;;;6.24;100.00
23659;BME280;12006;42.666;23.326;2023-02-18T07:18:31;-15442.00;;;6.35;100.00
23659;BME280;12006;42.666;23.326;2023-02-18T07:20:57;-15764.91;;;6.63;100.00
23659;BME280;12006;42.666;23.326;2023-02-18T07:23:22;-15445.06;;;6.50;100.00
23659;BME280;12006;42.666;23.326;2023-02-18T07:25:48;-15447.91;;;6.64;100.00
23659;BME280;12006;42.666;23.326;2023-02-18T07:28:13;-15449.75;;;6.73;99.10
23659;BME280;12006;42.666;23.326;2023-02-18T07:30:38;-15768.91;;;6.82;98.73
23659;BME280;12006;42.666;23.326;2023-02-18T07:33:05;-15772.97;;;7.02;98.07
23659;BME280;12006;42.666;23.326;2023-02-18T07:35:30;-16093.47;;;7.17;96.62
23659;BME280;12006;42.666;23.326;2023-02-18T07:37:56;-16097.78;;;7.36;95.04
23659;BME280;12006;42.666;23.326;2023-02-18T07:40:22;-16098.63;;;7.40;94.15
23659;BME280;12006;42.666;23.326;2023-02-18T07:42:48;-16417.84;;;7.48;93.42
23659;BME280;12006;42.666;23.326;2023-02-18T07:45:14;-16101.84;;;7.55;91.56
23659;BME280;12006;42.666;23.326;2023-02-18T07:47:39;-16101.31;;;7.53;90.79
23659;BME280;12006;42.666;23.326;2023-02-18T07:50:07;-16104.09;;;7.66;90.07
23659;BME280;12006;42.666;23.326;2023-02-18T07:52:33;-16423.09;;;7.72;89.62
23659;BME280;12006;42.666;23.326;2023-02-18T07:54:58;-16747.09;;;8.00;87.45
23659;BME280;12006;42.666;23.326;2023-02-18T07:57:24;-16745.63;;;7.94;86.39
23659;BME280;12006;42.666;23.326;2023-02-18T07:59:49;-17070.69;;;8.26;84.18
23659;BME280;12006;42.666;23.326;2023-02-18T08:02:22;-16430.13;;;8.04;82.71
23659;BME280;12006;42.666;23.326;2023-02-18T08:04:48;-16750.81;;;8.17;83.42
23659;BME280;12006;42.666;23.326;2023-02-18T08:07:16;-16431.34;;;8.09;84.19
23659;BME280;12006;42.666;23.326;2023-02-18T08:09:42;-17072.06;;;8.32;82.16
23659;BME280;12006;42.666;23.326;2023-02-18T08:12:08;-17076.06;;;8.49;80.51
23659;BME280;12006;42.666;23.326;2023-02-18T08:14:33;-17397.41;;;8.63;77.90
23659;BME280;12006;42.666;23.326;2023-02-18T08:16:59;-17079.06;;;8.62;75.99
23659;BME280;12006;42.666;23.326;2023-02-18T08:19:24;-17401.19;;;8.79;75.54
23659;BME280;12006;42.666;23.326;2023-02-18T08:21:50;-17724.28;;;9.00;73.42
23659;BME280;12006;42.666;23.326;2023-02-18T08:24:15;-18046.72;;;9.17;73.05
23659;BME280;12006;42.666;23.326;2023-02-18T08:26:40;-18048.19;;;9.23;71.93
23659;BME280;12006;42.666;23.326;2023-02-18T08:29:06;-18050.66;;;9.33;71.16
23659;BME280;12006;42.666;23.326;2023-02-18T08:31:32;-18370.06;;;9.38;72.30
23659;BME280;12006;42.666;23.326;2023-02-18T08:33:59;-18695.41;;;9.65;70.18
23659;BME280;12006;42.666;23.326;2023-02-18T08:36:25;-18698.59;;;9.77;67.42
23659;BME280;12006;42.666;23.326;2023-02-18T08:38:50;-19021.22;;;9.93;68.59
23659;BME280;12006;42.666;23.326;2023-02-18T08:41:16;-19020.97;;;9.92;68.33
23659;BME280;12006;42.666;23.326;2023-02-18T08:43:43;-19344.16;;;10.10;67.24
23659;BME280;12006;42.666;23.326;2023-02-18T08:46:09;-19024.63;;;10.06;65.66
23659;BME280;12006;42.666;23.326;2023-02-18T08:48:35;-19021.75;;;9.95;65.98
23659;BME280;12006;42.666;23.326;2023-02-18T08:51:10;-19350.41;;;10.33;64.71
23659;BME280;12006;42.666;23.326;2023-02-18T08:53:35;-19676.44;;;10.60;63.47
23659;BME280;12006;42.666;23.326;2023-02-18T08:56:05;-19999.38;;;10.75;62.47
23659;BME280;12006;42.666;23.326;2023-02-18T08:58:30;-19676.81;;;10.61;62.64
23659;BME280;12006;42.666;23.326;2023-02-18T09:01:00;-19354.38;;;10.48;62.28
23659;BME280;12006;42.666;23.326;2023-02-18T09:03:26;-19674.94;;;10.54;63.20
23659;BME280;12006;42.666;23.326;2023-02-18T09:05:51;-19998.44;;;10.71;62.67
23659;BME280;12006;42.666;23.326;2023-02-18T09:08:17;-19679.00;;;10.69;62.50
23659;BME280;12006;42.666;23.326;2023-02-18T09:10:43;-19999.66;;;10.76;62.05
23659;BME280;12006;42.666;23.326;2023-02-18T09:13:09;-20002.41;;;10.86;61.15
23659;BME280;12006;42.666;23.326;2023-02-18T09:15:34;-19680.75;;;10.76;61.76
23659;BME280;12006;42.666;23.326;2023-02-18T09:17:59;-19680.34;;;10.74;62.02
23659;BME280;12006;42.666;23.326;2023-02-18T09:20:26;-19680.75;;;10.76;62.11
23659;BME280;12006;42.666;23.326;2023-02-18T09:22:51;-20002.28;;;10.85;61.22
23659;BME280;12006;42.666;23.326;2023-02-18T09:25:17;-20001.31;;;10.82;60.90
23659;BME280;12006;42.666;23.326;2023-02-18T09:27:42;-19678.84;;;10.69;62.95
23659;BME280;12006;42.666;23.326;2023-02-18T09:30:08;-20000.34;;;10.78;63.00
23659;BME280;12006;42.666;23.326;2023-02-18T09:32:33;-20004.63;;;10.93;61.88
23659;BME280;12006;42.666;23.326;2023-02-18T09:34:59;-20328.38;;;11.10;62.08
23659;BME280;12006;42.666;23.326;2023-02-18T09:37:24;-20653.44;;;11.31;59.89
23659;BME280;12006;42.666;23.326;2023-02-18T09:39:50;-20655.16;;;11.37;59.77
23659;BME280;12006;42.666;23.326;2023-02-18T09:42:17;-20658.00;;;11.47;60.02
23659;BME280;12006;42.666;23.326;2023-02-18T09:44:54;-20985.22;;;11.74;59.68
23659;BME280;12006;42.666;23.326;2023-02-18T09:50:00;-21639.97;;;12.27;57.54
23659;BME280;12006;42.666;23.326;2023-02-18T09:52:31;-21964.56;;;12.44;56.16
23659;BME280;12006;42.666;23.326;2023-02-18T09:54:57;-21965.03;;;12.45;56.39
23659;BME280;12006;42.666;23.326;2023-02-18T09:57:28;-21965.50;;;12.47;56.41
23659;BME280;12006;42.666;23.326;2023-02-18T10:00:06;-21969.19;;;12.59;55.94
23659;BME280;12006;42.666;23.326;2023-02-18T10:02:35;-21966.56;;;12.50;56.00
23659;BME280;12006;42.666;23.326;2023-02-18T10:05:03;-21642.22;;;12.35;56.39
23659;BME280;12006;42.666;23.326;2023-02-18T10:07:31;-21642.69;;;12.36;56.13
23659;BME280;12006;42.666;23.326;2023-02-18T10:10:02;-21967.34;;;12.53;56.38
23659;BME280;12006;42.666;23.326;2023-02-18T10:12:31;-21970.84;;;12.64;56.36
23659;BME280;12006;42.666;23.326;2023-02-18T10:14:59;-22295.56;;;12.80;55.81
23659;BME280;12006;42.666;23.326;2023-02-18T10:17:27;-22300.22;;;12.95;55.66
23659;BME280;12006;42.666;23.326;2023-02-18T10:19:55;-22631.47;;;13.31;54.63
23659;BME280;12006;42.666;23.326;2023-02-18T10:22:23;-22632.59;;;13.34;53.29
23659;BME280;12006;42.666;23.326;2023-02-18T10:24:52;-22956.16;;;13.45;53.58
23659;BME280;12006;42.666;23.326;2023-02-18T10:27:34;-22960.50;;;13.58;53.28
23659;BME280;12006;42.666;23.326;2023-02-18T10:30:22;-23288.81;;;13.83;52.86
23659;BME280;12006;42.666;23.326;2023-02-18T10:32:52;-23294.69;;;14.01;52.07
23659;BME280;12006;42.666;23.326;2023-02-18T10:35:39;-23294.03;;;13.99;51.72
23659;BME280;12006;42.666;23.326;2023-02-18T10:38:30;-23293.69;;;13.98;51.00
23659;BME280;12006;42.666;23.326;2023-02-18T10:44:04;-23291.91;;;13.93;51.20
23659;BME280;12006;42.666;23.326;2023-02-18T10:52:01;-23966.00;;;14.91;50.11
23659;BME280;12006;42.666;23.326;2023-02-18T10:55:08;-24302.13;;;15.36;47.98
23659;BME280;12006;42.666;23.326;2023-02-18T10:57:33;-24315.81;;;15.76;47.55
23659;BME280;12006;42.666;23.326;2023-02-18T11:03:02;-24333.97;;;16.23;46.15
23659;BME280;12006;42.666;23.326;2023-02-18T11:05:28;-24330.19;;;16.12;45.24
23659;BME280;12006;42.666;23.326;2023-02-18T11:07:56;-24338.59;;;16.36;44.83
23659;BME280;12006;42.666;23.326;2023-02-18T11:10:29;-24341.84;;;16.45;44.14
23659;BME280;12006;42.666;23.326;2023-02-18T11:13:04;-24338.94;;;16.37;44.29
23659;BME280;12006;42.666;23.326;2023-02-18T11:15:31;-24347.13;;;16.61;43.17
23659;BME280;12006;42.666;23.326;2023-02-18T11:18:11;-24348.50;;;16.65;43.82
23659;BME280;12006;42.666;23.326;2023-02-18T11:20:37;-24350.91;;;16.72;43.87
23659;BME280;12006;42.666;23.326;2023-02-18T11:25:36;-24339.44;;;16.44;42.88
23659;BME280;12006;42.666;23.326;2023-02-18T11:28:06;-24346.78;;;16.60;41.73
23659;BME280;12006;42.666;23.326;2023-02-18T11:30:52;-24340.47;;;16.47;41.90
23659;BME280;12006;42.666;23.326;2023-02-18T11:33:42;-24341.84;;;16.51;41.98
23659;BME280;12006;42.666;23.326;2023-02-18T11:38:54;-24334.13;;;16.29;40.54
23659;BME280;12006;42.666;23.326;2023-02-18T11:41:36;-24334.66;;;16.30;40.46
23659;BME280;12006;42.666;23.326;2023-02-18T11:44:06;-24334.31;;;16.29;39.91
23659;BME280;12006;42.666;23.326;2023-02-18T11:46:32;-24332.44;;;16.24;40.43
23659;BME280;12006;42.666;23.326;2023-02-18T11:49:22;-24339.78;;;16.45;39.78
23659;BME280;12006;42.666;23.326;2023-02-18T11:51:48;-24338.59;;;16.41;39.84
23659;BME280;12006;42.666;23.326;2023-02-18T11:54:25;-24349.69;;;16.74;39.47
23659;BME280;12006;42.666;23.326;2023-02-18T11:57:05;-24356.38;;;16.93;38.18
23659;BME280;12006;42.666;23.326;2023-02-18T11:59:34;-24358.25;;;16.99;38.42
23659;BME280;12006;42.666;23.326;2023-02-18T12:04:48;-24358.41;;;16.99;37.29
23659;BME280;12006;42.666;23.326;2023-02-18T12:07:23;-24357.22;;;16.96;37.42
23659;BME280;12006;42.666;23.326;2023-02-18T12:09:53;-24354.16;;;16.87;37.36
23659;BME280;12006;42.666;23.326;2023-02-18T12:12:24;-24357.22;;;16.96;37.61
23659;BME280;12006;42.666;23.326;2023-02-18T12:14:53;-24364.41;;;17.16;37.66
23659;BME280;12006;42.666;23.326;2023-02-18T12:22:45;-24368.00;;;17.27;37.47
23659;BME280;12006;42.666;23.326;2023-02-18T12:25:39;-24367.16;;;17.24;37.82
23659;BME280;12006;42.666;23.326;2023-02-18T12:28:29;-24366.81;;;17.23;38.23
23659;BME280;12006;42.666;23.326;2023-02-18T12:31:33;-24363.72;;;17.14;38.54
23659;BME280;12006;42.666;23.326;2023-02-18T12:37:00;-24360.31;;;17.04;38.11
23659;BME280;12006;42.666;23.326;2023-02-18T12:39:59;-24356.88;;;16.95;38.57
23659;BME280;12006;42.666;23.326;2023-02-18T12:56:39;-24353.63;;;16.85;38.78
23659;BME280;12006;42.666;23.326;2023-02-18T12:59:37;-24351.94;;;16.80;39.33
23659;BME280;12006;42.666;23.326;2023-02-18T13:13:29;-24369.19;;;17.30;38.04
23659;BME280;12006;42.666;23.326;2023-02-18T13:15:59;-24366.63;;;17.23;38.32
23659;BME280;12006;42.666;23.326;2023-02-18T13:18:31;-24368.16;;;17.27;38.41
23659;BME280;12006;42.666;23.326;2023-02-18T13:21:11;-24366.81;;;17.23;38.58
23659;BME280;12006;42.666;23.326;2023-02-18T13:23:54;-24366.28;;;17.22;38.39
23659;BME280;12006;42.666;23.326;2023-02-18T13:26:20;-24360.31;;;17.04;38.81
23659;BME280;12006;42.666;23.326;2023-02-18T13:29:17;-24357.91;;;16.98;38.90
23659;BME280;12006;42.666;23.326;2023-02-18T13:40:32;-24360.31;;;17.04;40.55
23659;BME280;12006;42.666;23.326;2023-02-18T13:46:11;-24349.19;;;16.72;42.04
23659;BME280;12006;42.666;23.326;2023-02-18T13:48:44;-24344.91;;;16.60;42.40
23659;BME280;12006;42.666;23.326;2023-02-18T13:51:13;-24342.69;;;16.53;43.13
23659;BME280;12006;42.666;23.326;2023-02-18T13:53:43;-24337.06;;;16.37;43.00
23659;BME280;12006;42.666;23.326;2023-02-18T13:58:53;-24343.19;;;16.55;43.87
23659;BME280;12006;42.666;23.326;2023-02-18T14:01:24;-24338.75;;;16.42;43.36
23659;BME280;12006;42.666;23.326;2023-02-18T14:03:58;-24338.41;;;16.41;43.64
23659;BME280;12006;42.666;23.326;2023-02-18T14:06:30;-24338.75;;;16.42;43.54
23659;BME280;12006;42.666;23.326;2023-02-18T14:12:16;-24012.00;;;16.27;43.74
23659;BME280;12006;42.666;23.326;2023-02-18T14:14:42;-24007.28;;;16.13;44.52
23659;BME280;12006;42.666;23.326;2023-02-18T14:17:28;-24004.59;;;16.05;44.45
23659;BME280;12006;42.666;23.326;2023-02-18T14:20:21;-23993.97;;;15.74;44.79
23659;BME280;12006;42.666;23.326;2023-02-18T14:22:49;-23668.81;;;15.62;44.82
23659;BME280;12006;42.666;23.326;2023-02-18T14:27:55;-23665.50;;;15.52;45.23
23659;BME280;12006;42.666;23.326;2023-02-18T14:32:46;-23663.50;;;15.46;45.28
23659;BME280;12006;42.666;23.326;2023-02-18T14:41:36;-23331.31;;;15.12;46.39
23659;BME280;12006;42.666;23.326;2023-02-18T14:49:53;-23329.84;;;15.08;46.61
23659;BME280;12006;42.666;23.326;2023-02-18T14:52:40;-23328.03;;;15.02;47.24